createdAt,value
2022-09-05T00:00:08.431Z,6.30
2022-09-05T00:02:49.190Z,6.12
2022-09-05T00:06:02.778Z,6.53
2022-09-05T00:08:51.337Z,6.25
2022-09-05T00:11:42.715Z,6.55
2022-09-05T00:14:16.745Z,6.37
2022-09-05T00:17:18.677Z,6.47
2022-09-05T00:24:23.214Z,6.22
2022-09-05T00:24:42.666Z,6.30
2022-09-05T00:26:30.183Z,6.47
2022-09-05T00:29:01.935Z,6.50
2022-09-05T00:31:57.762Z,7.00
2022-09-05T00:34:38.752Z,6.55
2022-09-05T00:37:37.949Z,6.65
2022-09-05T00:40:26.159Z,6.70
2022-09-05T00:43:06.680Z,6.75
2022-09-05T00:45:44.323Z,6.57
2022-09-05T00:48:41.963Z,6.50
2022-09-05T00:51:34.428Z,6.62
2022-09-05T00:54:27.126Z,7.03
2022-09-05T00:57:46.049Z,6.90
2022-09-05T01:00:17.937Z,6.82
2022-09-05T01:03:10.282Z,6.85
2022-09-05T01:05:58.831Z,6.37
2022-09-05T01:08:31.657Z,6.10
2022-09-05T01:11:07.200Z,5.85
2022-09-05T01:13:34.593Z,6.50
2022-09-05T01:16:21.988Z,6.43
2022-09-05T01:19:29.823Z,6.43
2022-09-05T01:22:22.058Z,6.00
2022-09-05T01:25:06.827Z,5.80
2022-09-05T01:29:13.189Z,6.20
2022-09-05T01:31:05.175Z,6.00
2022-09-05T01:34:05.202Z,6.47
2022-09-05T01:36:53.329Z,6.30
2022-09-05T01:40:11.469Z,6.30
2022-09-05T01:42:25.360Z,6.50
2022-09-05T01:44:59.052Z,6.00
2022-09-05T01:47:41.193Z,6.70
2022-09-05T01:50:46.694Z,7.03
2022-09-05T01:53:31.839Z,6.93
2022-09-05T01:56:19.086Z,6.43
2022-09-05T01:59:04.122Z,6.82
2022-09-05T02:01:58.314Z,7.15
2022-09-05T02:04:45.382Z,6.62
2022-09-05T02:07:30.472Z,6.12
2022-09-05T02:10:20.135Z,6.47
2022-09-05T02:13:01.869Z,6.43
2022-09-05T02:15:55.437Z,6.57
2022-09-05T02:18:46.016Z,6.55
2022-09-05T02:21:21.691Z,5.95
2022-09-05T02:24:14.882Z,6.32
2022-09-05T02:26:53.070Z,6.10
2022-09-05T02:29:36.787Z,6.45
2022-09-05T02:32:27.760Z,6.60
2022-09-05T02:35:04.452Z,6.10
2022-09-05T02:39:18.615Z,6.12
2022-09-05T02:45:12.353Z,5.80
2022-09-05T02:45:20.531Z,7.07
2022-09-05T02:46:36.671Z,6.90
2022-09-05T02:49:44.524Z,6.72
2022-09-05T02:57:26.731Z,6.45
2022-09-05T02:57:41.357Z,7.12
2022-09-05T02:58:07.008Z,7.62
2022-09-05T03:00:51.158Z,7.85
2022-09-05T03:03:39.218Z,7.22
2022-09-05T03:06:15.279Z,6.62
2022-09-05T03:09:17.459Z,6.95
2022-09-05T03:11:53.763Z,6.07
2022-09-05T03:14:59.105Z,6.47
2022-09-05T03:17:38.153Z,6.37
2022-09-05T03:20:07.837Z,6.32
2022-09-05T03:23:04.570Z,6.28
2022-09-05T03:25:48.393Z,6.20
2022-09-05T03:28:58.186Z,6.47
2022-09-05T03:31:49.761Z,6.57
2022-09-05T03:34:41.370Z,5.80
2022-09-05T03:37:29.509Z,6.43
2022-09-05T03:40:26.487Z,5.93
2022-09-05T03:43:21.118Z,5.97
2022-09-05T03:45:50.940Z,5.90
2022-09-05T03:48:29.307Z,5.78
2022-09-05T03:57:04.493Z,6.37
2022-09-05T03:57:12.691Z,6.28
2022-09-05T03:57:32.333Z,6.20
2022-09-05T04:00:10.880Z,5.97
2022-09-05T04:07:10.062Z,6.28
2022-09-05T04:08:14.409Z,6.40
2022-09-05T04:09:02.162Z,6.68
2022-09-05T04:11:57.764Z,6.55
2022-09-05T04:14:46.425Z,6.65
2022-09-05T04:17:25.413Z,7.12
2022-09-05T04:20:05.753Z,6.45
2022-09-05T04:23:10.474Z,6.93
2022-09-05T04:26:09.287Z,6.07
2022-09-05T04:28:48.693Z,6.30
2022-09-05T04:31:32.346Z,5.90
2022-09-05T04:34:28.839Z,6.18
2022-09-05T04:37:02.429Z,6.40
2022-09-05T04:39:30.147Z,6.72
2022-09-05T04:42:05.868Z,6.68
2022-09-05T04:44:46.552Z,6.70
2022-09-05T04:47:19.143Z,6.78
2022-09-05T04:50:01.082Z,7.12
2022-09-05T04:52:54.648Z,7.45
2022-09-05T04:55:26.136Z,6.78
2022-09-05T04:58:01.502Z,6.65
2022-09-05T05:06:03.086Z,6.32
2022-09-05T05:06:12.050Z,6.07
2022-09-05T05:06:45.347Z,6.18
2022-09-05T05:09:24.548Z,5.68
2022-09-05T05:17:54.253Z,6.00
2022-09-05T05:18:07.633Z,4.90
2022-09-05T05:18:39.553Z,5.20
2022-09-05T05:21:15.086Z,4.90
2022-09-05T05:23:44.383Z,5.03
2022-09-05T05:26:43.296Z,4.90
2022-09-05T05:29:22.570Z,4.68
2022-09-05T05:32:00.749Z,4.75
2022-09-05T05:34:31.891Z,4.72
2022-09-05T05:37:01.079Z,4.87
2022-09-05T05:39:29.927Z,4.72
2022-09-05T05:41:58.633Z,4.40
2022-09-05T05:44:35.638Z,4.60
2022-09-05T05:47:09.689Z,4.68
2022-09-05T05:49:46.028Z,4.72
2022-09-05T05:52:37.851Z,4.50
2022-09-05T05:55:51.165Z,4.53
2022-09-05T05:58:37.713Z,5.12
2022-09-05T06:01:37.061Z,4.22
2022-09-05T06:04:53.149Z,4.68
2022-09-05T06:09:14.118Z,4.95
2022-09-05T06:14:56.617Z,4.40
2022-09-05T06:14:58.708Z,5.03
2022-09-05T06:17:08.609Z,5.10
2022-09-05T06:22:00.596Z,5.32
2022-09-05T06:22:59.861Z,5.50
2022-09-05T06:25:52.008Z,4.85
2022-09-05T06:28:26.162Z,5.70
2022-09-05T06:31:29.942Z,6.28
2022-09-05T06:34:27.220Z,6.47
2022-09-05T06:37:02.305Z,6.45
2022-09-05T06:39:47.861Z,6.57
2022-09-05T06:42:47.198Z,6.15
2022-09-05T06:45:30.359Z,6.12
2022-09-05T06:48:14.423Z,6.05
2022-09-05T06:51:11.371Z,5.40
2022-09-05T06:53:59.385Z,4.35
2022-09-05T06:56:45.294Z,3.72
2022-09-05T06:59:45.876Z,3.72
2022-09-05T07:02:59.056Z,3.37
2022-09-05T07:05:38.962Z,3.78
2022-09-05T07:08:35.470Z,3.70
2022-09-05T07:11:16.186Z,3.30
2022-09-05T07:13:53.503Z,3.65
2022-09-05T07:19:28.701Z,3.75
2022-09-05T07:22:48.001Z,3.80
2022-09-05T07:25:19.176Z,3.67
2022-09-05T07:28:26.042Z,3.90
2022-09-05T07:31:06.879Z,3.92
2022-09-05T07:33:35.125Z,4.18
2022-09-05T07:36:24.383Z,4.20
2022-09-05T07:39:12.320Z,4.03
2022-09-05T07:41:51.393Z,3.92
2022-09-05T07:44:32.352Z,3.47
2022-09-05T07:47:05.355Z,3.90
2022-09-05T07:49:36.262Z,3.85
2022-09-05T07:56:56.118Z,3.78
2022-09-05T07:56:59.247Z,3.97
2022-09-05T07:58:11.900Z,3.85
2022-09-05T08:00:39.259Z,3.40
2022-09-05T08:03:31.423Z,4.07
2022-09-05T08:06:01.722Z,3.78
2022-09-05T08:08:33.714Z,3.75
2022-09-05T08:11:25.629Z,3.70
2022-09-05T08:14:40.666Z,3.42
2022-09-05T08:16:53.428Z,3.17
2022-09-05T08:19:38.312Z,3.60
2022-09-05T08:22:07.154Z,3.22
2022-09-05T08:24:38.774Z,3.47
2022-09-05T08:27:24.829Z,3.37
2022-09-05T08:30:24.748Z,3.62
2022-09-05T08:32:48.877Z,3.10
2022-09-05T08:35:41.119Z,2.72
2022-09-05T08:38:08.664Z,3.00
2022-09-05T08:41:04.251Z,2.85
2022-09-05T08:45:49.081Z,3.05
2022-09-05T08:46:50.301Z,2.65
2022-09-05T08:49:38.575Z,2.55
2022-09-05T08:52:08.923Z,2.80
2022-09-05T08:54:39.478Z,2.92
2022-09-05T08:57:18.465Z,2.90
2022-09-05T09:00:19.444Z,2.90
2022-09-05T09:03:03.961Z,3.20
2022-09-05T09:06:12.374Z,3.03
2022-09-05T09:08:56.843Z,2.90
2022-09-05T09:11:37.320Z,2.78
2022-09-05T09:14:31.551Z,3.22
2022-09-05T09:17:16.122Z,3.20
2022-09-05T09:19:50.088Z,3.35
2022-09-05T09:22:29.195Z,3.12
2022-09-05T09:25:14.274Z,3.78
2022-09-05T09:28:48.274Z,3.50
2022-09-05T09:31:07.630Z,3.65
2022-09-05T09:33:43.976Z,3.08
2022-09-05T09:39:11.722Z,3.35
2022-09-05T09:42:33.400Z,3.17
2022-09-05T09:45:22.750Z,2.80
2022-09-05T09:48:15.586Z,3.40
2022-09-05T09:51:00.703Z,3.80
2022-09-05T09:53:43.051Z,3.20
2022-09-05T09:56:22.393Z,3.70
2022-09-05T09:59:07.670Z,3.60
2022-09-05T10:02:07.333Z,3.30
2022-09-05T10:10:34.461Z,3.22
2022-09-05T10:10:51.624Z,3.22
2022-09-05T10:11:54.777Z,3.50
2022-09-05T10:14:53.882Z,3.70
2022-09-05T10:17:45.299Z,3.15
2022-09-05T10:20:21.987Z,3.17
2022-09-05T10:23:29.291Z,3.47
2022-09-05T10:26:17.220Z,3.20
2022-09-05T10:28:56.689Z,3.58
2022-09-05T10:33:10.500Z,3.22
2022-09-05T10:35:19.387Z,2.97
2022-09-05T10:37:55.066Z,3.20
2022-09-05T10:40:24.434Z,3.00
2022-09-05T10:43:01.420Z,3.37
2022-09-05T10:45:38.693Z,3.17
2022-09-05T10:48:22.310Z,2.92
2022-09-05T10:51:12.343Z,2.80
2022-09-05T10:54:26.806Z,2.85
2022-09-05T10:57:15.251Z,3.00
2022-09-05T11:02:23.406Z,3.10
2022-09-05T11:02:39.654Z,3.15
2022-09-05T11:05:26.072Z,2.65
2022-09-05T11:07:59.383Z,2.80
2022-09-05T11:10:41.532Z,2.90
2022-09-05T11:13:18.702Z,3.15
2022-09-05T11:16:04.966Z,2.85
2022-09-05T11:19:04.241Z,3.00
2022-09-05T11:22:23.150Z,2.47
2022-09-05T11:25:00.977Z,2.92
2022-09-05T11:27:33.027Z,2.90
2022-09-05T11:30:05.989Z,2.95
2022-09-05T11:39:50.616Z,2.53
2022-09-05T11:40:02.335Z,3.15
2022-09-05T11:40:26.292Z,2.80
2022-09-05T11:41:30.157Z,2.83
2022-09-05T11:44:08.410Z,2.80
2022-09-05T11:47:27.033Z,2.60
2022-09-05T11:50:09.035Z,2.85
2022-09-05T11:53:00.613Z,2.47
2022-09-05T11:55:40.450Z,2.62
2022-09-05T11:58:45.414Z,2.25
2022-09-05T12:01:44.302Z,2.40
2022-09-05T12:04:36.245Z,2.33
2022-09-05T12:07:30.307Z,2.30
2022-09-05T12:10:46.890Z,2.40
2022-09-05T12:13:57.042Z,2.50
2022-09-05T12:16:33.159Z,2.30
2022-09-05T12:19:32.742Z,2.28
2022-09-05T12:22:23.615Z,2.47
2022-09-05T12:25:26.539Z,2.37
2022-09-05T12:29:27.700Z,2.10
2022-09-05T12:32:59.626Z,2.30
2022-09-05T12:36:07.912Z,1.73
2022-09-05T12:40:54.951Z,2.17
2022-09-05T12:41:36.124Z,2.12
2022-09-05T12:43:44.922Z,2.28
2022-09-05T12:45:47.930Z,2.20
2022-09-05T12:48:38.867Z,2.20
2022-09-05T12:51:46.847Z,2.42
2022-09-05T12:54:29.865Z,2.40
2022-09-05T13:02:02.834Z,2.30
2022-09-05T13:03:05.713Z,2.20
2022-09-05T13:03:14.183Z,2.20
2022-09-05T13:05:52.807Z,2.08
2022-09-05T13:08:24.112Z,2.10
2022-09-05T13:14:48.093Z,2.00
2022-09-05T13:14:53.535Z,2.03
2022-09-05T13:16:45.865Z,1.80
2022-09-05T13:19:23.594Z,2.00
2022-09-05T13:21:52.890Z,2.15
2022-09-05T13:24:30.864Z,1.83
2022-09-05T13:27:07.327Z,2.10
2022-09-05T13:30:46.912Z,2.05
2022-09-05T13:38:00.927Z,1.92
2022-09-05T13:38:14.909Z,2.00
2022-09-05T13:41:04.588Z,1.95
2022-09-05T13:43:38.555Z,1.77
2022-09-05T13:46:11.242Z,1.90
2022-09-05T13:51:50.267Z,2.08
2022-09-05T13:54:36.593Z,1.90
2022-09-05T13:57:37.212Z,2.20
2022-09-05T14:00:07.163Z,2.05
2022-09-05T14:03:38.625Z,2.10
2022-09-05T14:06:03.530Z,1.80
2022-09-05T14:12:23.824Z,2.12
2022-09-05T14:15:10.779Z,2.10
2022-09-05T14:18:20.196Z,1.90
2022-09-05T14:21:17.362Z,1.80
2022-09-05T14:24:03.360Z,1.70
2022-09-05T14:26:35.995Z,1.90
2022-09-05T14:29:14.739Z,2.33
2022-09-05T14:37:40.538Z,2.62
2022-09-05T14:37:50.299Z,2.00
2022-09-05T14:38:09.188Z,1.83
2022-09-05T14:41:08.414Z,2.20
2022-09-05T14:43:47.563Z,1.80
2022-09-05T14:46:20.418Z,2.00
2022-09-05T14:48:52.995Z,1.90
2022-09-05T14:51:35.243Z,2.20
2022-09-05T15:02:41.428Z,2.10
2022-09-05T15:02:46.364Z,2.17
2022-09-05T15:03:01.963Z,1.87
2022-09-05T15:05:46.742Z,2.25
2022-09-05T15:11:00.593Z,1.90
2022-09-05T15:12:25.048Z,2.00
2022-09-05T15:14:03.740Z,2.00
2022-09-05T15:16:43.646Z,1.87
2022-09-05T15:19:30.782Z,1.80
2022-09-05T15:24:30.378Z,1.90
2022-09-05T15:27:00.173Z,2.17
2022-09-05T15:29:29.652Z,1.98
2022-09-05T15:32:21.744Z,2.20
2022-09-05T15:34:50.441Z,2.08
2022-09-05T15:37:40.732Z,2.37
2022-09-05T15:40:22.924Z,1.95
2022-09-05T15:43:02.266Z,1.98
2022-09-05T15:45:32.591Z,1.98
2022-09-05T15:48:14.863Z,2.08
2022-09-05T15:50:46.766Z,2.15
2022-09-05T15:53:21.856Z,2.10
2022-09-05T15:55:50.362Z,2.60
2022-09-05T15:58:27.041Z,2.35
2022-09-05T16:00:56.958Z,2.55
2022-09-05T16:08:12.148Z,2.30
2022-09-05T16:10:40.126Z,2.95
2022-09-05T16:10:47.082Z,2.55
2022-09-05T16:12:49.935Z,2.50
2022-09-05T16:19:22.117Z,3.12
2022-09-05T16:23:19.204Z,2.40
2022-09-05T16:23:30.081Z,2.80
2022-09-05T16:24:07.435Z,2.42
2022-09-05T16:26:41.084Z,2.80
2022-09-05T16:29:26.049Z,2.65
2022-09-05T16:31:59.730Z,2.62
2022-09-05T16:34:35.797Z,2.90
2022-09-05T16:37:14.414Z,2.55
2022-09-05T16:39:54.533Z,2.55
2022-09-05T16:42:46.849Z,2.60
2022-09-05T16:45:33.760Z,2.70
2022-09-05T16:48:36.567Z,2.60
2022-09-05T16:51:13.313Z,3.12
2022-09-05T16:53:53.332Z,2.85
2022-09-05T16:56:36.060Z,2.97
2022-09-05T16:59:08.047Z,3.00
2022-09-05T17:02:06.474Z,3.05
2022-09-05T17:05:05.145Z,3.08
2022-09-05T17:08:17.712Z,2.83
2022-09-05T17:10:57.464Z,3.30
2022-09-05T17:13:38.958Z,3.17
2022-09-05T17:16:10.027Z,3.30
2022-09-05T17:18:37.946Z,3.40
2022-09-05T17:21:09.824Z,3.10
2022-09-05T17:29:32.754Z,3.20
2022-09-05T17:29:36.232Z,3.15
2022-09-05T17:32:47.439Z,2.80
2022-09-05T17:35:42.786Z,3.03
2022-09-05T17:38:41.709Z,3.00
2022-09-05T17:41:15.559Z,3.30
2022-09-05T17:43:42.749Z,3.55
2022-09-05T17:46:23.490Z,3.00
2022-09-05T17:49:19.049Z,3.30
2022-09-05T17:51:51.207Z,2.92
2022-09-05T17:54:30.346Z,2.90
2022-09-05T17:57:28.923Z,3.25
2022-09-05T17:59:57.787Z,3.50
2022-09-05T18:02:26.702Z,3.03
2022-09-05T18:04:56.050Z,3.53
2022-09-05T18:07:54.526Z,3.35
2022-09-05T18:10:27.295Z,3.78
2022-09-05T18:15:43.833Z,3.22
2022-09-05T18:19:28.810Z,3.17
2022-09-05T18:24:12.144Z,3.17
2022-09-05T18:26:45.274Z,2.95
2022-09-05T18:29:58.345Z,3.50
2022-09-05T18:33:54.009Z,3.20
2022-09-05T18:35:56.574Z,3.60
2022-09-05T18:38:50.252Z,3.50
2022-09-05T18:41:25.368Z,3.35
2022-09-05T18:44:12.514Z,3.20
2022-09-05T18:46:49.743Z,3.30
2022-09-05T18:50:21.280Z,3.10
2022-09-05T18:52:45.089Z,3.50
2022-09-05T18:56:09.324Z,2.97
2022-09-05T18:58:12.635Z,3.28
2022-09-05T19:00:46.830Z,3.10
2022-09-05T19:03:30.684Z,3.40
2022-09-05T19:06:35.732Z,3.17
2022-09-05T19:09:02.849Z,3.30
2022-09-05T19:11:34.373Z,3.17
2022-09-05T19:14:26.229Z,3.28
2022-09-05T19:17:07.646Z,3.35
2022-09-05T19:20:33.022Z,3.40
2022-09-05T19:23:12.803Z,3.60
2022-09-05T19:25:45.016Z,3.35
2022-09-05T19:36:44.700Z,3.40
2022-09-05T19:36:46.172Z,3.37
2022-09-05T19:37:26.323Z,3.58
2022-09-05T19:47:11.135Z,3.40
2022-09-05T19:47:36.961Z,3.50
2022-09-05T19:47:38.545Z,3.33
2022-09-05T19:48:35.056Z,3.90
2022-09-05T19:51:16.975Z,3.75
2022-09-05T19:54:04.027Z,3.65
2022-09-05T19:56:40.230Z,3.53
2022-09-05T19:59:34.057Z,4.03
2022-09-05T20:02:02.575Z,3.42
2022-09-05T20:04:53.993Z,4.40
2022-09-05T20:07:27.556Z,3.83
2022-09-05T20:09:56.060Z,4.12
2022-09-05T20:12:34.999Z,3.90
2022-09-05T20:15:36.605Z,4.22
2022-09-05T20:18:27.927Z,3.83
2022-09-05T20:21:14.604Z,4.00
2022-09-05T20:23:44.160Z,4.03
2022-09-05T20:26:11.449Z,4.28
2022-09-05T20:28:40.477Z,3.78
2022-09-05T20:31:24.498Z,3.90
2022-09-05T20:33:58.082Z,3.62
2022-09-05T20:43:21.753Z,3.72
2022-09-05T20:43:24.764Z,3.87
2022-09-05T20:43:32.323Z,3.92
2022-09-05T20:45:35.428Z,3.80
2022-09-05T20:54:09.664Z,3.60
2022-09-05T20:54:20.955Z,3.75
2022-09-05T20:54:25.303Z,4.10
2022-09-05T20:56:33.489Z,3.37
2022-09-05T20:59:01.081Z,3.80
2022-09-05T21:01:32.654Z,3.35
2022-09-05T21:04:01.686Z,3.35
2022-09-05T21:06:36.556Z,4.10
2022-09-05T21:09:24.431Z,3.58
2022-09-05T21:11:54.152Z,3.50
2022-09-05T21:14:22.825Z,3.90
2022-09-05T21:17:13.408Z,3.87
2022-09-05T21:19:42.314Z,3.70
2022-09-05T21:22:17.618Z,3.75
2022-09-05T21:24:46.757Z,3.92
2022-09-05T21:27:17.747Z,3.60
2022-09-05T21:29:45.122Z,4.07
2022-09-05T21:32:16.464Z,3.75
2022-09-05T21:34:49.281Z,3.60
2022-09-05T21:37:18.084Z,3.53
2022-09-05T21:39:59.342Z,3.75
2022-09-05T21:45:12.677Z,3.90
2022-09-05T21:47:41.328Z,4.03
2022-09-05T21:48:08.816Z,3.78
2022-09-05T21:50:49.723Z,3.62
2022-09-05T21:57:16.884Z,3.67
2022-09-05T21:59:27.732Z,3.72
2022-09-05T21:59:36.532Z,3.72
2022-09-05T22:02:07.341Z,4.07
2022-09-05T22:04:41.331Z,4.07
2022-09-05T22:07:09.367Z,4.00
2022-09-05T22:09:36.283Z,4.20
2022-09-05T22:12:17.497Z,3.78
2022-09-05T22:14:50.414Z,3.55
2022-09-05T22:17:17.486Z,4.00
2022-09-05T22:19:45.257Z,3.83
2022-09-05T22:22:18.015Z,3.70
2022-09-05T22:25:00.446Z,3.90
2022-09-05T22:27:27.693Z,3.90
2022-09-05T22:29:56.147Z,3.67
2022-09-05T22:32:34.991Z,3.62
2022-09-05T22:35:27.855Z,3.97
2022-09-05T22:37:59.206Z,4.05
2022-09-05T22:40:28.109Z,3.40
2022-09-05T22:42:56.956Z,3.50
2022-09-05T22:45:24.285Z,3.70
2022-09-05T22:47:51.357Z,3.50
2022-09-05T22:50:18.878Z,3.50
2022-09-05T22:52:45.808Z,3.78
2022-09-05T22:55:12.874Z,3.67
2022-09-05T22:57:40.425Z,4.00
2022-09-05T23:00:08.478Z,4.35
2022-09-05T23:02:35.440Z,4.28
2022-09-05T23:05:03.607Z,4.45
2022-09-05T23:07:32.333Z,4.22
2022-09-05T23:09:59.703Z,4.28
2022-09-05T23:12:26.684Z,4.40
2022-09-05T23:14:53.677Z,4.80
2022-09-05T23:17:20.610Z,4.00
2022-09-05T23:19:47.536Z,3.83
2022-09-05T23:22:14.569Z,4.18
2022-09-05T23:24:41.497Z,4.05
2022-09-05T23:27:08.402Z,4.15
2022-09-05T23:29:35.367Z,4.32
2022-09-05T23:32:02.475Z,4.60
2022-09-05T23:34:29.434Z,4.40
2022-09-05T23:36:56.347Z,4.10
2022-09-05T23:39:23.356Z,4.30
2022-09-05T23:41:50.317Z,4.60
2022-09-05T23:44:17.290Z,4.35
2022-09-05T23:46:44.469Z,5.37
2022-09-05T23:49:11.390Z,4.60
2022-09-05T23:51:38.299Z,4.50
2022-09-05T23:54:05.237Z,4.22
2022-09-05T23:56:32.170Z,4.20
2022-09-05T23:58:59.185Z,4.15
